sensor_id;sensor_type;location;lat;lon;timestamp;P1;durP1;ratioP1;P2;durP2;ratioP2
25207;SDS011;13153;52.316;21.166;2023-05-16T00:00:52;8.18;;;5.03;;
25207;SDS011;13153;52.316;21.166;2023-05-16T00:03:18;6.53;;;4.93;;
25207;SDS011;13153;52.316;21.166;2023-05-16T00:05:44;5.40;;;4.90;;
25207;SDS011;13153;52.316;21.166;2023-05-16T00:08:10;7.13;;;4.90;;
25207;SDS011;13153;52.316;21.166;2023-05-16T00:10:36;5.82;;;4.80;;
25207;SDS011;13153;52.316;21.166;2023-05-16T00:13:21;5.82;;;4.78;;
25207;SDS011;13153;52.316;21.166;2023-05-16T00:15:49;5.63;;;4.95;;
25207;SDS011;13153;52.316;21.166;2023-05-16T00:18:16;12.43;;;5.75;;
25207;SDS011;13153;52.316;21.166;2023-05-16T00:20:43;5.93;;;4.88;;
25207;SDS011;13153;52.316;21.166;2023-05-16T00:23:10;5.70;;;5.10;;
25207;SDS011;13153;52.316;21.166;2023-05-16T00:25:36;6.53;;;4.90;;
25207;SDS011;13153;52.316;21.166;2023-05-16T00:28:02;7.07;;;5.30;;
25207;SDS011;13153;52.316;21.166;2023-05-16T00:30:28;7.18;;;5.28;;
25207;SDS011;13153;52.316;21.166;2023-05-16T00:32:54;8.93;;;5.38;;
25207;SDS011;13153;52.316;21.166;2023-05-16T00:35:20;6.57;;;5.32;;
25207;SDS011;13153;52.316;21.166;2023-05-16T00:37:46;6.30;;;5.63;;
25207;SDS011;13153;52.316;21.166;2023-05-16T00:40:11;7.70;;;5.60;;
25207;SDS011;13153;52.316;21.166;2023-05-16T00:42:38;6.97;;;5.70;;
25207;SDS011;13153;52.316;21.166;2023-05-16T00:45:04;7.20;;;5.70;;
25207;SDS011;13153;52.316;21.166;2023-05-16T00:47:31;8.20;;;5.75;;
25207;SDS011;13153;52.316;21.166;2023-05-16T00:49:57;7.18;;;5.70;;
25207;SDS011;13153;52.316;21.166;2023-05-16T00:52:23;6.30;;;5.50;;
25207;SDS011;13153;52.316;21.166;2023-05-16T00:54:50;7.00;;;5.45;;
25207;SDS011;13153;52.316;21.166;2023-05-16T00:57:16;8.57;;;6.45;;
25207;SDS011;13153;52.316;21.166;2023-05-16T00:59:44;7.97;;;5.90;;
25207;SDS011;13153;52.316;21.166;2023-05-16T01:02:12;8.85;;;6.10;;
25207;SDS011;13153;52.316;21.166;2023-05-16T01:04:38;8.63;;;6.10;;
25207;SDS011;13153;52.316;21.166;2023-05-16T01:07:04;7.00;;;6.22;;
25207;SDS011;13153;52.316;21.166;2023-05-16T01:09:30;8.18;;;6.78;;
25207;SDS011;13153;52.316;21.166;2023-05-16T01:20:55;8.38;;;6.97;;
25207;SDS011;13153;52.316;21.166;2023-05-16T01:26:27;8.90;;;6.65;;
25207;SDS011;13153;52.316;21.166;2023-05-16T01:28:56;7.68;;;6.88;;
25207;SDS011;13153;52.316;21.166;2023-05-16T01:31:22;11.60;;;7.35;;
25207;SDS011;13153;52.316;21.166;2023-05-16T01:33:48;10.20;;;7.38;;
25207;SDS011;13153;52.316;21.166;2023-05-16T01:36:25;8.20;;;7.10;;
25207;SDS011;13153;52.316;21.166;2023-05-16T01:39:00;9.50;;;7.40;;
25207;SDS011;13153;52.316;21.166;2023-05-16T01:42:11;7.95;;;7.15;;
25207;SDS011;13153;52.316;21.166;2023-05-16T01:47:23;9.35;;;7.55;;
25207;SDS011;13153;52.316;21.166;2023-05-16T01:52:57;8.77;;;7.70;;
25207;SDS011;13153;52.316;21.166;2023-05-16T01:55:36;13.20;;;8.25;;
25207;SDS011;13153;52.316;21.166;2023-05-16T01:58:18;8.38;;;7.57;;
25207;SDS011;13153;52.316;21.166;2023-05-16T02:00:47;9.80;;;7.97;;
25207;SDS011;13153;52.316;21.166;2023-05-16T02:03:13;10.13;;;7.65;;
25207;SDS011;13153;52.316;21.166;2023-05-16T02:05:39;8.65;;;7.75;;
25207;SDS011;13153;52.316;21.166;2023-05-16T02:08:04;10.25;;;8.10;;
25207;SDS011;13153;52.316;21.166;2023-05-16T02:10:32;10.18;;;7.82;;
25207;SDS011;13153;52.316;21.166;2023-05-16T02:12:58;9.25;;;7.82;;
25207;SDS011;13153;52.316;21.166;2023-05-16T02:15:24;9.65;;;7.88;;
25207;SDS011;13153;52.316;21.166;2023-05-16T02:17:50;9.55;;;7.90;;
25207;SDS011;13153;52.316;21.166;2023-05-16T02:20:15;10.40;;;8.02;;
25207;SDS011;13153;52.316;21.166;2023-05-16T02:22:41;9.90;;;8.55;;
25207;SDS011;13153;52.316;21.166;2023-05-16T02:25:08;10.10;;;7.70;;
25207;SDS011;13153;52.316;21.166;2023-05-16T02:27:34;8.98;;;8.00;;
25207;SDS011;13153;52.316;21.166;2023-05-16T02:30:00;10.50;;;7.82;;
25207;SDS011;13153;52.316;21.166;2023-05-16T02:32:26;8.45;;;7.40;;
25207;SDS011;13153;52.316;21.166;2023-05-16T02:34:52;9.75;;;8.50;;
25207;SDS011;13153;52.316;21.166;2023-05-16T02:37:18;11.02;;;7.80;;
25207;SDS011;13153;52.316;21.166;2023-05-16T02:39:43;10.57;;;7.65;;
25207;SDS011;13153;52.316;21.166;2023-05-16T02:42:10;12.98;;;8.02;;
25207;SDS011;13153;52.316;21.166;2023-05-16T02:44:35;9.70;;;8.52;;
25207;SDS011;13153;52.316;21.166;2023-05-16T02:47:01;9.50;;;8.13;;
25207;SDS011;13153;52.316;21.166;2023-05-16T02:49:27;10.40;;;8.48;;
25207;SDS011;13153;52.316;21.166;2023-05-16T02:51:53;11.10;;;7.93;;
25207;SDS011;13153;52.316;21.166;2023-05-16T02:54:19;10.45;;;8.88;;
25207;SDS011;13153;52.316;21.166;2023-05-16T02:56:45;12.23;;;8.40;;
25207;SDS011;13153;52.316;21.166;2023-05-16T02:59:11;9.98;;;8.35;;
25207;SDS011;13153;52.316;21.166;2023-05-16T03:01:37;12.45;;;8.90;;
25207;SDS011;13153;52.316;21.166;2023-05-16T03:04:03;11.15;;;9.02;;
25207;SDS011;13153;52.316;21.166;2023-05-16T03:06:30;10.95;;;8.55;;
25207;SDS011;13153;52.316;21.166;2023-05-16T03:08:56;10.95;;;8.35;;
25207;SDS011;13153;52.316;21.166;2023-05-16T03:11:22;11.60;;;8.52;;
25207;SDS011;13153;52.316;21.166;2023-05-16T03:13:48;11.02;;;9.07;;
25207;SDS011;13153;52.316;21.166;2023-05-16T03:16:14;11.77;;;8.35;;
25207;SDS011;13153;52.316;21.166;2023-05-16T03:18:40;10.75;;;8.05;;
25207;SDS011;13153;52.316;21.166;2023-05-16T03:21:07;11.32;;;8.77;;
25207;SDS011;13153;52.316;21.166;2023-05-16T03:23:32;11.10;;;8.07;;
25207;SDS011;13153;52.316;21.166;2023-05-16T03:25:58;9.52;;;8.45;;
25207;SDS011;13153;52.316;21.166;2023-05-16T03:28:25;10.18;;;8.02;;
25207;SDS011;13153;52.316;21.166;2023-05-16T03:30:51;11.00;;;7.97;;
25207;SDS011;13153;52.316;21.166;2023-05-16T03:33:17;11.20;;;7.93;;
25207;SDS011;13153;52.316;21.166;2023-05-16T03:35:43;8.35;;;7.50;;
25207;SDS011;13153;52.316;21.166;2023-05-16T03:38:10;8.88;;;7.25;;
25207;SDS011;13153;52.316;21.166;2023-05-16T03:40:36;9.25;;;7.20;;
25207;SDS011;13153;52.316;21.166;2023-05-16T03:43:02;10.23;;;6.80;;
25207;SDS011;13153;52.316;21.166;2023-05-16T03:45:28;9.02;;;6.97;;
25207;SDS011;13153;52.316;21.166;2023-05-16T03:47:55;8.45;;;6.38;;
25207;SDS011;13153;52.316;21.166;2023-05-16T03:50:21;9.02;;;6.45;;
25207;SDS011;13153;52.316;21.166;2023-05-16T03:52:47;9.85;;;6.25;;
25207;SDS011;13153;52.316;21.166;2023-05-16T03:55:13;8.75;;;6.50;;
25207;SDS011;13153;52.316;21.166;2023-05-16T03:57:39;9.10;;;6.00;;
25207;SDS011;13153;52.316;21.166;2023-05-16T04:00:06;11.35;;;6.03;;
25207;SDS011;13153;52.316;21.166;2023-05-16T04:02:35;9.05;;;6.05;;
25207;SDS011;13153;52.316;21.166;2023-05-16T04:05:00;7.68;;;6.32;;
25207;SDS011;13153;52.316;21.166;2023-05-16T04:07:27;9.30;;;6.22;;
25207;SDS011;13153;52.316;21.166;2023-05-16T04:09:53;7.30;;;5.55;;
25207;SDS011;13153;52.316;21.166;2023-05-16T04:12:20;7.72;;;6.05;;
25207;SDS011;13153;52.316;21.166;2023-05-16T04:14:47;8.77;;;6.03;;
25207;SDS011;13153;52.316;21.166;2023-05-16T04:17:12;8.38;;;5.80;;
25207;SDS011;13153;52.316;21.166;2023-05-16T04:19:38;7.45;;;5.60;;
25207;SDS011;13153;52.316;21.166;2023-05-16T04:22:04;11.35;;;6.20;;
25207;SDS011;13153;52.316;21.166;2023-05-16T04:24:31;7.30;;;5.55;;
25207;SDS011;13153;52.316;21.166;2023-05-16T04:26:57;7.20;;;5.63;;
25207;SDS011;13153;52.316;21.166;2023-05-16T04:29:23;7.30;;;5.82;;
25207;SDS011;13153;52.316;21.166;2023-05-16T04:31:49;11.20;;;5.90;;
25207;SDS011;13153;52.316;21.166;2023-05-16T04:34:15;7.50;;;5.60;;
25207;SDS011;13153;52.316;21.166;2023-05-16T04:36:41;9.38;;;6.97;;
25207;SDS011;13153;52.316;21.166;2023-05-16T04:39:07;9.05;;;5.85;;
25207;SDS011;13153;52.316;21.166;2023-05-16T04:41:33;8.80;;;5.95;;
25207;SDS011;13153;52.316;21.166;2023-05-16T04:44:00;7.55;;;5.20;;
25207;SDS011;13153;52.316;21.166;2023-05-16T04:46:28;9.13;;;5.07;;
25207;SDS011;13153;52.316;21.166;2023-05-16T04:48:55;8.52;;;5.97;;
25207;SDS011;13153;52.316;21.166;2023-05-16T04:51:21;8.40;;;6.10;;
25207;SDS011;13153;52.316;21.166;2023-05-16T04:53:47;8.13;;;5.63;;
25207;SDS011;13153;52.316;21.166;2023-05-16T04:56:13;6.80;;;5.05;;
25207;SDS011;13153;52.316;21.166;2023-05-16T04:58:38;9.73;;;5.63;;
25207;SDS011;13153;52.316;21.166;2023-05-16T05:01:04;5.85;;;5.25;;
25207;SDS011;13153;52.316;21.166;2023-05-16T05:03:30;6.55;;;5.05;;
25207;SDS011;13153;52.316;21.166;2023-05-16T05:05:56;7.60;;;5.15;;
25207;SDS011;13153;52.316;21.166;2023-05-16T05:08:22;6.40;;;4.78;;
25207;SDS011;13153;52.316;21.166;2023-05-16T05:10:47;8.38;;;4.35;;
25207;SDS011;13153;52.316;21.166;2023-05-16T05:13:13;5.93;;;4.88;;
25207;SDS011;13153;52.316;21.166;2023-05-16T05:15:39;6.63;;;4.53;;
25207;SDS011;13153;52.316;21.166;2023-05-16T05:18:05;6.72;;;4.60;;
25207;SDS011;13153;52.316;21.166;2023-05-16T05:20:31;6.45;;;4.50;;
25207;SDS011;13153;52.316;21.166;2023-05-16T05:22:56;5.50;;;4.47;;
25207;SDS011;13153;52.316;21.166;2023-05-16T05:25:22;6.55;;;4.53;;
25207;SDS011;13153;52.316;21.166;2023-05-16T05:27:48;10.50;;;5.22;;
25207;SDS011;13153;52.316;21.166;2023-05-16T05:30:13;7.78;;;5.10;;
25207;SDS011;13153;52.316;21.166;2023-05-16T05:32:40;6.80;;;4.95;;
25207;SDS011;13153;52.316;21.166;2023-05-16T05:35:06;7.88;;;5.38;;
25207;SDS011;13153;52.316;21.166;2023-05-16T05:37:32;10.65;;;5.28;;
25207;SDS011;13153;52.316;21.166;2023-05-16T05:39:58;7.40;;;5.30;;
25207;SDS011;13153;52.316;21.166;2023-05-16T05:42:24;9.40;;;5.80;;
25207;SDS011;13153;52.316;21.166;2023-05-16T05:44:49;11.15;;;5.32;;
25207;SDS011;13153;52.316;21.166;2023-05-16T05:47:15;11.93;;;5.63;;
25207;SDS011;13153;52.316;21.166;2023-05-16T05:49:41;11.48;;;6.15;;
25207;SDS011;13153;52.316;21.166;2023-05-16T05:52:07;7.10;;;5.60;;
25207;SDS011;13153;52.316;21.166;2023-05-16T05:54:33;8.57;;;6.10;;
25207;SDS011;13153;52.316;21.166;2023-05-16T05:56:59;9.70;;;5.88;;
25207;SDS011;13153;52.316;21.166;2023-05-16T05:59:25;8.65;;;6.25;;
25207;SDS011;13153;52.316;21.166;2023-05-16T06:01:51;8.10;;;5.65;;
25207;SDS011;13153;52.316;21.166;2023-05-16T06:04:17;8.60;;;6.32;;
25207;SDS011;13153;52.316;21.166;2023-05-16T06:06:44;8.95;;;5.97;;
25207;SDS011;13153;52.316;21.166;2023-05-16T06:09:10;8.02;;;5.68;;
25207;SDS011;13153;52.316;21.166;2023-05-16T06:11:37;8.60;;;6.05;;
25207;SDS011;13153;52.316;21.166;2023-05-16T06:14:03;13.80;;;7.05;;
25207;SDS011;13153;52.316;21.166;2023-05-16T06:16:29;7.95;;;6.32;;
25207;SDS011;13153;52.316;21.166;2023-05-16T06:18:55;9.73;;;6.40;;
25207;SDS011;13153;52.316;21.166;2023-05-16T06:21:21;7.03;;;6.32;;
25207;SDS011;13153;52.316;21.166;2023-05-16T06:23:47;14.35;;;7.15;;
25207;SDS011;13153;52.316;21.166;2023-05-16T06:26:13;10.60;;;7.10;;
25207;SDS011;13153;52.316;21.166;2023-05-16T06:28:39;10.52;;;6.68;;
25207;SDS011;13153;52.316;21.166;2023-05-16T06:31:04;10.63;;;8.13;;
25207;SDS011;13153;52.316;21.166;2023-05-16T06:33:30;9.07;;;6.43;;
25207;SDS011;13153;52.316;21.166;2023-05-16T06:35:56;8.63;;;6.90;;
25207;SDS011;13153;52.316;21.166;2023-05-16T06:38:22;9.95;;;6.40;;
25207;SDS011;13153;52.316;21.166;2023-05-16T06:40:47;10.35;;;6.90;;
25207;SDS011;13153;52.316;21.166;2023-05-16T06:43:13;8.73;;;6.82;;
25207;SDS011;13153;52.316;21.166;2023-05-16T06:45:39;8.38;;;7.15;;
25207;SDS011;13153;52.316;21.166;2023-05-16T06:48:06;9.45;;;6.88;;
25207;SDS011;13153;52.316;21.166;2023-05-16T06:50:32;9.18;;;7.28;;
25207;SDS011;13153;52.316;21.166;2023-05-16T06:52:59;9.13;;;7.28;;
25207;SDS011;13153;52.316;21.166;2023-05-16T06:55:25;8.35;;;6.93;;
25207;SDS011;13153;52.316;21.166;2023-05-16T06:57:51;10.18;;;8.10;;
25207;SDS011;13153;52.316;21.166;2023-05-16T07:00:17;10.35;;;7.95;;
25207;SDS011;13153;52.316;21.166;2023-05-16T07:02:43;9.18;;;6.97;;
25207;SDS011;13153;52.316;21.166;2023-05-16T07:05:09;11.57;;;7.32;;
25207;SDS011;13153;52.316;21.166;2023-05-16T07:07:35;8.55;;;6.93;;
25207;SDS011;13153;52.316;21.166;2023-05-16T07:10:01;9.43;;;6.90;;
25207;SDS011;13153;52.316;21.166;2023-05-16T07:12:28;9.90;;;6.60;;
25207;SDS011;13153;52.316;21.166;2023-05-16T07:14:53;9.43;;;6.22;;
25207;SDS011;13153;52.316;21.166;2023-05-16T07:17:19;16.15;;;6.75;;
25207;SDS011;13153;52.316;21.166;2023-05-16T07:19:45;10.40;;;6.53;;
25207;SDS011;13153;52.316;21.166;2023-05-16T07:22:10;9.63;;;6.18;;
25207;SDS011;13153;52.316;21.166;2023-05-16T07:24:36;10.70;;;6.90;;
25207;SDS011;13153;52.316;21.166;2023-05-16T07:27:02;7.68;;;6.72;;
25207;SDS011;13153;52.316;21.166;2023-05-16T07:29:28;11.20;;;6.32;;
25207;SDS011;13153;52.316;21.166;2023-05-16T07:31:54;8.07;;;6.55;;
25207;SDS011;13153;52.316;21.166;2023-05-16T07:34:20;7.78;;;6.60;;
25207;SDS011;13153;52.316;21.166;2023-05-16T07:36:46;7.93;;;6.70;;
25207;SDS011;13153;52.316;21.166;2023-05-16T07:39:12;6.22;;;5.63;;
25207;SDS011;13153;52.316;21.166;2023-05-16T07:41:38;9.70;;;6.15;;
25207;SDS011;13153;52.316;21.166;2023-05-16T07:44:04;6.63;;;5.60;;
25207;SDS011;13153;52.316;21.166;2023-05-16T07:46:30;5.93;;;5.32;;
25207;SDS011;13153;52.316;21.166;2023-05-16T07:48:56;7.60;;;5.50;;
25207;SDS011;13153;52.316;21.166;2023-05-16T07:51:21;7.72;;;5.57;;
25207;SDS011;13153;52.316;21.166;2023-05-16T07:53:47;7.75;;;5.65;;
25207;SDS011;13153;52.316;21.166;2023-05-16T07:56:13;8.88;;;5.50;;
25207;SDS011;13153;52.316;21.166;2023-05-16T07:58:39;6.03;;;5.30;;
25207;SDS011;13153;52.316;21.166;2023-05-16T08:01:06;8.48;;;5.03;;
25207;SDS011;13153;52.316;21.166;2023-05-16T08:03:32;5.32;;;4.70;;
25207;SDS011;13153;52.316;21.166;2023-05-16T08:05:59;6.50;;;4.07;;
25207;SDS011;13153;52.316;21.166;2023-05-16T08:08:25;9.65;;;4.93;;
25207;SDS011;13153;52.316;21.166;2023-05-16T08:10:50;6.53;;;4.10;;
25207;SDS011;13153;52.316;21.166;2023-05-16T08:13:16;6.63;;;4.10;;
25207;SDS011;13153;52.316;21.166;2023-05-16T08:15:42;6.03;;;4.15;;
25207;SDS011;13153;52.316;21.166;2023-05-16T08:18:11;5.93;;;4.20;;
25207;SDS011;13153;52.316;21.166;2023-05-16T08:20:39;7.95;;;4.35;;
25207;SDS011;13153;52.316;21.166;2023-05-16T08:23:06;4.30;;;3.70;;
25207;SDS011;13153;52.316;21.166;2023-05-16T08:25:33;4.20;;;3.80;;
25207;SDS011;13153;52.316;21.166;2023-05-16T08:28:00;4.30;;;3.65;;
25207;SDS011;13153;52.316;21.166;2023-05-16T08:30:26;4.72;;;3.70;;
25207;SDS011;13153;52.316;21.166;2023-05-16T08:32:53;4.72;;;3.60;;
25207;SDS011;13153;52.316;21.166;2023-05-16T08:35:18;3.80;;;3.47;;
25207;SDS011;13153;52.316;21.166;2023-05-16T08:37:44;6.00;;;4.10;;
25207;SDS011;13153;52.316;21.166;2023-05-16T08:40:10;6.93;;;4.00;;
25207;SDS011;13153;52.316;21.166;2023-05-16T08:42:38;6.22;;;4.25;;
25207;SDS011;13153;52.316;21.166;2023-05-16T08:45:05;5.68;;;4.28;;
25207;SDS011;13153;52.316;21.166;2023-05-16T08:47:32;8.25;;;3.90;;
25207;SDS011;13153;52.316;21.166;2023-05-16T08:50:01;6.55;;;4.15;;
25207;SDS011;13153;52.316;21.166;2023-05-16T08:52:31;7.93;;;4.40;;
25207;SDS011;13153;52.316;21.166;2023-05-16T08:55:00;5.40;;;3.50;;
25207;SDS011;13153;52.316;21.166;2023-05-16T08:57:35;5.20;;;3.90;;
25207;SDS011;13153;52.316;21.166;2023-05-16T09:00:02;5.90;;;4.00;;
25207;SDS011;13153;52.316;21.166;2023-05-16T09:02:39;6.95;;;3.90;;
25207;SDS011;13153;52.316;21.166;2023-05-16T09:05:10;6.88;;;3.83;;
25207;SDS011;13153;52.316;21.166;2023-05-16T09:07:39;4.57;;;3.38;;
25207;SDS011;13153;52.316;21.166;2023-05-16T09:10:07;3.85;;;3.03;;
25207;SDS011;13153;52.316;21.166;2023-05-16T09:12:33;5.45;;;3.00;;
25207;SDS011;13153;52.316;21.166;2023-05-16T09:15:03;5.25;;;2.85;;
25207;SDS011;13153;52.316;21.166;2023-05-16T09:17:35;3.10;;;2.80;;
25207;SDS011;13153;52.316;21.166;2023-05-16T09:22:56;6.72;;;2.60;;
25207;SDS011;13153;52.316;21.166;2023-05-16T09:25:25;5.07;;;2.90;;
25207;SDS011;13153;52.316;21.166;2023-05-16T09:27:54;4.35;;;2.92;;
25207;SDS011;13153;52.316;21.166;2023-05-16T09:30:22;3.45;;;2.67;;
25207;SDS011;13153;52.316;21.166;2023-05-16T09:32:56;4.63;;;2.60;;
25207;SDS011;13153;52.316;21.166;2023-05-16T09:35:23;6.05;;;2.33;;
25207;SDS011;13153;52.316;21.166;2023-05-16T09:37:49;5.10;;;2.85;;
25207;SDS011;13153;52.316;21.166;2023-05-16T09:40:21;3.75;;;2.30;;
25207;SDS011;13153;52.316;21.166;2023-05-16T09:43:00;4.28;;;2.20;;
25207;SDS011;13153;52.316;21.166;2023-05-16T09:45:29;4.00;;;2.53;;
25207;SDS011;13153;52.316;21.166;2023-05-16T09:48:06;4.78;;;2.50;;
25207;SDS011;13153;52.316;21.166;2023-05-16T09:50:34;5.03;;;2.70;;
25207;SDS011;13153;52.316;21.166;2023-05-16T09:53:01;4.32;;;2.70;;
25207;SDS011;13153;52.316;21.166;2023-05-16T09:55:29;10.48;;;2.75;;
25207;SDS011;13153;52.316;21.166;2023-05-16T09:57:56;5.57;;;2.60;;
25207;SDS011;13153;52.316;21.166;2023-05-16T10:00:22;3.92;;;2.70;;
25207;SDS011;13153;52.316;21.166;2023-05-16T10:02:58;4.45;;;2.72;;
25207;SDS011;13153;52.316;21.166;2023-05-16T10:05:27;6.13;;;2.42;;
25207;SDS011;13153;52.316;21.166;2023-05-16T10:07:56;3.58;;;2.50;;
25207;SDS011;13153;52.316;21.166;2023-05-16T10:10:23;5.88;;;2.45;;
25207;SDS011;13153;52.316;21.166;2023-05-16T10:12:50;4.82;;;2.70;;
25207;SDS011;13153;52.316;21.166;2023-05-16T10:15:19;2.30;;;2.10;;
25207;SDS011;13153;52.316;21.166;2023-05-16T10:17:47;3.13;;;2.47;;
25207;SDS011;13153;52.316;21.166;2023-05-16T10:20:17;2.60;;;2.40;;
25207;SDS011;13153;52.316;21.166;2023-05-16T10:22:45;3.53;;;2.53;;
25207;SDS011;13153;52.316;21.166;2023-05-16T10:28:00;3.85;;;2.70;;
25207;SDS011;13153;52.316;21.166;2023-05-16T10:30:28;2.85;;;2.40;;
25207;SDS011;13153;52.316;21.166;2023-05-16T10:32:55;2.67;;;2.47;;
25207;SDS011;13153;52.316;21.166;2023-05-16T10:35:23;4.05;;;2.30;;
25207;SDS011;13153;52.316;21.166;2023-05-16T10:37:49;2.53;;;2.15;;
25207;SDS011;13153;52.316;21.166;2023-05-16T10:40:16;2.50;;;2.30;;
25207;SDS011;13153;52.316;21.166;2023-05-16T10:42:58;3.72;;;2.20;;
25207;SDS011;13153;52.316;21.166;2023-05-16T10:45:26;3.42;;;2.60;;
25207;SDS011;13153;52.316;21.166;2023-05-16T11:01:19;2.78;;;2.40;;
25207;SDS011;13153;52.316;21.166;2023-05-16T11:11:44;2.55;;;2.20;;
25207;SDS011;13153;52.316;21.166;2023-05-16T11:14:23;4.03;;;2.45;;
25207;SDS011;13153;52.316;21.166;2023-05-16T11:19:42;2.58;;;2.15;;
25207;SDS011;13153;52.316;21.166;2023-05-16T11:24:50;2.38;;;2.00;;
25207;SDS011;13153;52.316;21.166;2023-05-16T11:27:34;3.08;;;2.05;;
25207;SDS011;13153;52.316;21.166;2023-05-16T11:30:12;4.40;;;2.38;;
25207;SDS011;13153;52.316;21.166;2023-05-16T11:32:43;3.75;;;2.40;;
25207;SDS011;13153;52.316;21.166;2023-05-16T11:35:14;3.58;;;2.10;;
25207;SDS011;13153;52.316;21.166;2023-05-16T11:37:42;5.10;;;2.50;;
25207;SDS011;13153;52.316;21.166;2023-05-16T11:40:10;4.18;;;2.45;;
25207;SDS011;13153;52.316;21.166;2023-05-16T11:42:45;3.00;;;2.30;;
25207;SDS011;13153;52.316;21.166;2023-05-16T11:45:16;2.78;;;2.10;;
25207;SDS011;13153;52.316;21.166;2023-05-16T11:47:46;3.20;;;2.50;;
25207;SDS011;13153;52.316;21.166;2023-05-16T11:50:13;3.33;;;2.50;;
25207;SDS011;13153;52.316;21.166;2023-05-16T11:52:53;3.13;;;2.20;;
25207;SDS011;13153;52.316;21.166;2023-05-16T11:55:22;4.95;;;1.85;;
25207;SDS011;13153;52.316;21.166;2023-05-16T11:57:54;3.05;;;2.10;;
25207;SDS011;13153;52.316;21.166;2023-05-16T12:00:22;2.25;;;2.05;;
25207;SDS011;13153;52.316;21.166;2023-05-16T12:02:50;2.42;;;2.22;;
25207;SDS011;13153;52.316;21.166;2023-05-16T12:05:18;2.22;;;2.00;;
25207;SDS011;13153;52.316;21.166;2023-05-16T12:07:51;2.50;;;1.85;;
25207;SDS011;13153;52.316;21.166;2023-05-16T12:10:19;2.00;;;1.70;;
25207;SDS011;13153;52.316;21.166;2023-05-16T12:12:47;2.65;;;1.90;;
25207;SDS011;13153;52.316;21.166;2023-05-16T12:15:18;2.70;;;1.75;;
25207;SDS011;13153;52.316;21.166;2023-05-16T12:17:45;5.25;;;2.22;;
25207;SDS011;13153;52.316;21.166;2023-05-16T12:20:12;2.58;;;1.83;;
25207;SDS011;13153;52.316;21.166;2023-05-16T12:22:40;2.45;;;1.85;;
25207;SDS011;13153;52.316;21.166;2023-05-16T12:25:24;2.63;;;2.00;;
25207;SDS011;13153;52.316;21.166;2023-05-16T12:28:01;1.92;;;1.70;;
25207;SDS011;13153;52.316;21.166;2023-05-16T12:30:29;2.85;;;1.80;;
25207;SDS011;13153;52.316;21.166;2023-05-16T12:35:30;2.28;;;2.00;;
25207;SDS011;13153;52.316;21.166;2023-05-16T12:38:08;2.35;;;2.05;;
25207;SDS011;13153;52.316;21.166;2023-05-16T12:40:36;2.08;;;1.85;;
25207;SDS011;13153;52.316;21.166;2023-05-16T12:43:11;12.38;;;2.00;;
25207;SDS011;13153;52.316;21.166;2023-05-16T12:45:50;3.10;;;2.13;;
25207;SDS011;13153;52.316;21.166;2023-05-16T12:48:21;4.20;;;2.42;;
25207;SDS011;13153;52.316;21.166;2023-05-16T12:50:54;2.83;;;2.45;;
25207;SDS011;13153;52.316;21.166;2023-05-16T12:53:20;4.32;;;2.15;;
25207;SDS011;13153;52.316;21.166;2023-05-16T12:55:46;5.05;;;2.25;;
25207;SDS011;13153;52.316;21.166;2023-05-16T12:58:11;8.10;;;2.40;;
25207;SDS011;13153;52.316;21.166;2023-05-16T13:00:38;2.58;;;2.38;;
25207;SDS011;13153;52.316;21.166;2023-05-16T13:03:04;2.63;;;2.10;;
25207;SDS011;13153;52.316;21.166;2023-05-16T13:05:31;7.88;;;2.90;;
25207;SDS011;13153;52.316;21.166;2023-05-16T13:07:57;4.53;;;2.13;;
25207;SDS011;13153;52.316;21.166;2023-05-16T13:10:23;4.22;;;2.67;;
25207;SDS011;13153;52.316;21.166;2023-05-16T13:12:50;5.88;;;2.50;;
25207;SDS011;13153;52.316;21.166;2023-05-16T13:15:16;5.55;;;2.30;;
25207;SDS011;13153;52.316;21.166;2023-05-16T13:17:42;4.32;;;2.53;;
25207;SDS011;13153;52.316;21.166;2023-05-16T13:20:08;3.97;;;2.40;;
25207;SDS011;13153;52.316;21.166;2023-05-16T13:22:40;3.90;;;2.30;;
25207;SDS011;13153;52.316;21.166;2023-05-16T13:25:07;7.63;;;3.45;;
25207;SDS011;13153;52.316;21.166;2023-05-16T13:27:34;6.93;;;2.33;;
25207;SDS011;13153;52.316;21.166;2023-05-16T13:30:01;2.38;;;2.17;;
25207;SDS011;13153;52.316;21.166;2023-05-16T13:32:31;3.25;;;2.20;;
25207;SDS011;13153;52.316;21.166;2023-05-16T13:34:57;2.90;;;2.40;;
25207;SDS011;13153;52.316;21.166;2023-05-16T13:37:22;2.95;;;2.20;;
25207;SDS011;13153;52.316;21.166;2023-05-16T13:39:48;3.75;;;2.28;;
25207;SDS011;13153;52.316;21.166;2023-05-16T13:42:14;6.70;;;2.30;;
25207;SDS011;13153;52.316;21.166;2023-05-16T13:44:40;5.40;;;2.65;;
25207;SDS011;13153;52.316;21.166;2023-05-16T13:47:06;3.00;;;2.40;;
25207;SDS011;13153;52.316;21.166;2023-05-16T13:49:32;2.97;;;2.40;;
25207;SDS011;13153;52.316;21.166;2023-05-16T13:51:58;3.72;;;2.25;;
25207;SDS011;13153;52.316;21.166;2023-05-16T13:54:25;3.97;;;2.08;;
25207;SDS011;13153;52.316;21.166;2023-05-16T13:56:51;6.78;;;2.38;;
25207;SDS011;13153;52.316;21.166;2023-05-16T13:59:17;2.55;;;2.15;;
25207;SDS011;13153;52.316;21.166;2023-05-16T14:01:43;7.32;;;2.38;;
25207;SDS011;13153;52.316;21.166;2023-05-16T14:04:09;2.92;;;2.10;;
25207;SDS011;13153;52.316;21.166;2023-05-16T14:06:34;3.25;;;2.35;;
25207;SDS011;13153;52.316;21.166;2023-05-16T14:09:01;4.38;;;2.03;;
25207;SDS011;13153;52.316;21.166;2023-05-16T14:11:27;6.53;;;2.45;;
25207;SDS011;13153;52.316;21.166;2023-05-16T14:13:53;2.75;;;2.10;;
25207;SDS011;13153;52.316;21.166;2023-05-16T14:16:19;5.40;;;2.90;;
25207;SDS011;13153;52.316;21.166;2023-05-16T14:18:45;3.78;;;2.55;;
25207;SDS011;13153;52.316;21.166;2023-05-16T14:21:11;2.88;;;2.40;;
25207;SDS011;13153;52.316;21.166;2023-05-16T14:23:37;5.50;;;2.20;;
25207;SDS011;13153;52.316;21.166;2023-05-16T14:26:04;4.75;;;2.70;;
25207;SDS011;13153;52.316;21.166;2023-05-16T14:28:30;4.85;;;2.80;;
25207;SDS011;13153;52.316;21.166;2023-05-16T14:30:58;2.50;;;2.30;;
25207;SDS011;13153;52.316;21.166;2023-05-16T14:33:25;2.88;;;2.10;;
25207;SDS011;13153;52.316;21.166;2023-05-16T14:35:51;3.60;;;2.20;;
25207;SDS011;13153;52.316;21.166;2023-05-16T14:38:17;2.53;;;2.10;;
25207;SDS011;13153;52.316;21.166;2023-05-16T14:40:44;4.68;;;2.30;;
25207;SDS011;13153;52.316;21.166;2023-05-16T14:43:11;3.70;;;2.53;;
25207;SDS011;13153;52.316;21.166;2023-05-16T14:45:37;3.95;;;2.50;;
25207;SDS011;13153;52.316;21.166;2023-05-16T14:48:06;5.25;;;2.40;;
25207;SDS011;13153;52.316;21.166;2023-05-16T14:50:32;5.75;;;2.72;;
25207;SDS011;13153;52.316;21.166;2023-05-16T14:52:58;6.82;;;5.30;;
25207;SDS011;13153;52.316;21.166;2023-05-16T14:55:24;5.95;;;4.07;;
25207;SDS011;13153;52.316;21.166;2023-05-16T14:57:50;5.32;;;3.20;;
25207;SDS011;13153;52.316;21.166;2023-05-16T15:00:16;3.05;;;2.30;;
25207;SDS011;13153;52.316;21.166;2023-05-16T15:02:49;5.78;;;2.85;;
25207;SDS011;13153;52.316;21.166;2023-05-16T15:05:14;8.35;;;3.03;;
25207;SDS011;13153;52.316;21.166;2023-05-16T15:07:40;6.40;;;3.50;;
25207;SDS011;13153;52.316;21.166;2023-05-16T15:10:07;4.85;;;3.00;;
25207;SDS011;13153;52.316;21.166;2023-05-16T15:12:34;4.38;;;3.05;;
25207;SDS011;13153;52.316;21.166;2023-05-16T15:15:01;10.35;;;2.90;;
25207;SDS011;13153;52.316;21.166;2023-05-16T15:17:27;4.28;;;2.28;;
25207;SDS011;13153;52.316;21.166;2023-05-16T15:19:52;5.30;;;2.50;;
25207;SDS011;13153;52.316;21.166;2023-05-16T15:22:18;2.45;;;2.25;;
25207;SDS011;13153;52.316;21.166;2023-05-16T15:24:45;2.65;;;2.30;;
25207;SDS011;13153;52.316;21.166;2023-05-16T15:27:11;6.55;;;2.53;;